createdAt,value
2023-01-17T00:00:44.670Z,3.63
2023-01-17T00:02:49.861Z,3.6
2023-01-17T00:04:55.033Z,3.67
2023-01-17T00:07:00.011Z,3.67
2023-01-17T00:09:05.179Z,3.63
2023-01-17T00:11:10.627Z,3.68
2023-01-17T00:13:15.555Z,3.71
2023-01-17T00:15:20.531Z,3.74
2023-01-17T00:17:25.806Z,3.69
2023-01-17T00:19:30.965Z,3.69
2023-01-17T00:21:36.155Z,3.69
2023-01-17T00:23:41.050Z,3.73
2023-01-17T00:25:46.605Z,3.77
2023-01-17T00:27:53.808Z,3.75
2023-01-17T00:29:58.819Z,3.77
2023-01-17T00:32:04.304Z,3.68
2023-01-17T00:34:09.723Z,3.74
2023-01-17T00:36:14.802Z,3.78
2023-01-17T00:38:19.862Z,3.82
2023-01-17T00:40:25.413Z,3.78
2023-01-17T00:42:30.613Z,3.81
2023-01-17T00:44:36.026Z,3.85
2023-01-17T00:46:41.624Z,3.8
2023-01-17T00:48:47.334Z,3.81
2023-01-17T00:50:52.644Z,3.84
2023-01-17T00:52:57.717Z,3.78
2023-01-17T00:55:03.019Z,3.81
2023-01-17T00:57:09.207Z,3.87
2023-01-17T00:59:14.335Z,3.87
2023-01-17T01:01:19.426Z,3.82
2023-01-17T01:03:25.938Z,3.88
2023-01-17T01:05:31.077Z,3.89
2023-01-17T01:07:36.262Z,3.88
2023-01-17T01:09:41.340Z,3.87
2023-01-17T01:11:46.890Z,3.88
2023-01-17T01:13:52.156Z,3.83
2023-01-17T01:15:57.333Z,3.87
2023-01-17T01:18:03.153Z,3.91
2023-01-17T01:20:08.245Z,3.92
2023-01-17T01:22:13.418Z,3.94
2023-01-17T01:24:18.480Z,3.92
2023-01-17T01:26:23.708Z,3.94
2023-01-17T01:28:28.911Z,3.97
2023-01-17T01:30:34.183Z,3.94
2023-01-17T01:32:39.534Z,3.92
2023-01-17T01:34:44.716Z,3.94
2023-01-17T01:36:51.801Z,3.94
2023-01-17T01:38:57.012Z,3.94
2023-01-17T01:41:02.333Z,3.95
2023-01-17T01:43:07.727Z,3.94
2023-01-17T01:45:13.099Z,3.96
2023-01-17T01:47:20.251Z,3.99
2023-01-17T01:49:25.610Z,4
2023-01-17T01:51:30.637Z,3.98
2023-01-17T01:53:35.687Z,3.97
2023-01-17T01:55:41.060Z,4.03
2023-01-17T01:57:46.251Z,4.02
2023-01-17T01:59:51.493Z,3.99
2023-01-17T02:01:56.642Z,3.99
2023-01-17T02:04:01.944Z,4.02
2023-01-17T02:06:07.990Z,4.04
2023-01-17T02:08:13.053Z,4.05
2023-01-17T02:10:18.138Z,4.02
2023-01-17T02:12:23.376Z,3.99
2023-01-17T02:14:28.390Z,3.98
2023-01-17T02:16:33.480Z,3.96
2023-01-17T02:18:38.853Z,4.04
2023-01-17T02:20:44.072Z,4.02
2023-01-17T02:22:49.143Z,4.03
2023-01-17T02:24:54.185Z,4.03
2023-01-17T02:27:00.357Z,3.98
2023-01-17T02:29:05.720Z,4.02
2023-01-17T02:31:10.893Z,3.99
2023-01-17T02:33:16.477Z,3.99
2023-01-17T02:35:21.614Z,3.97
2023-01-17T02:37:26.987Z,3.99
2023-01-17T02:39:35.399Z,4.01
2023-01-17T02:41:40.811Z,4.01
2023-01-17T02:43:45.819Z,3.95
2023-01-17T02:45:50.858Z,4.01
2023-01-17T02:47:56.016Z,4.02
2023-01-17T02:50:01.227Z,3.92
2023-01-17T02:52:06.498Z,3.98
2023-01-17T02:54:11.959Z,3.94
2023-01-17T02:56:17.110Z,3.98
2023-01-17T02:58:22.094Z,3.96
2023-01-17T03:00:27.511Z,4
2023-01-17T03:02:32.974Z,3.97
2023-01-17T03:04:39.390Z,3.97
2023-01-17T03:06:44.633Z,3.95
2023-01-17T03:08:50.923Z,3.93
2023-01-17T03:10:55.800Z,3.92
2023-01-17T03:13:01.015Z,3.92
2023-01-17T03:15:09.139Z,3.92
2023-01-17T03:17:14.244Z,3.92
2023-01-17T03:19:19.459Z,3.93
2023-01-17T03:21:24.770Z,3.93
2023-01-17T03:23:30.055Z,3.9
2023-01-17T03:25:35.443Z,3.88
2023-01-17T03:27:40.949Z,3.82
2023-01-17T03:29:46.006Z,3.82
2023-01-17T03:31:52.176Z,3.83
2023-01-17T03:33:57.417Z,3.78
2023-01-17T03:36:06.713Z,3.8
2023-01-17T03:38:11.790Z,3.77
2023-01-17T03:40:17.065Z,3.76
2023-01-17T03:42:22.510Z,3.78
2023-01-17T03:44:27.760Z,3.77
2023-01-17T03:46:34.018Z,3.71
2023-01-17T03:48:39.239Z,3.71
2023-01-17T03:50:44.609Z,3.7
2023-01-17T03:52:49.836Z,3.68
2023-01-17T03:54:55.408Z,3.63
2023-01-17T03:57:00.498Z,3.64
2023-01-17T03:59:05.716Z,3.61
2023-01-17T04:01:14.166Z,3.59
2023-01-17T04:03:23.569Z,3.51
2023-01-17T04:05:28.659Z,3.52
2023-01-17T04:07:34.136Z,3.55
2023-01-17T04:09:39.204Z,3.54
2023-01-17T04:11:44.395Z,3.56
2023-01-17T04:13:49.542Z,3.55
2023-01-17T04:15:54.672Z,3.53
2023-01-17T04:17:59.915Z,3.5
2023-01-17T04:20:05.151Z,3.5
2023-01-17T04:22:10.594Z,3.45
2023-01-17T04:24:17.850Z,3.39
2023-01-17T04:26:23.339Z,3.38
2023-01-17T04:28:28.362Z,3.38
2023-01-17T04:30:34.002Z,3.34
2023-01-17T04:32:39.490Z,3.34
2023-01-17T04:34:44.595Z,3.33
2023-01-17T04:36:50.077Z,3.3
2023-01-17T04:38:55.517Z,3.29
2023-01-17T04:41:00.832Z,3.29
2023-01-17T04:43:06.185Z,3.24
2023-01-17T04:45:11.469Z,3.2
2023-01-17T04:47:19.826Z,3.23
2023-01-17T04:49:24.947Z,3.24
2023-01-17T04:51:31.927Z,3.23
2023-01-17T04:53:36.913Z,3.22
2023-01-17T04:55:42.061Z,3.24
2023-01-17T04:57:47.259Z,3.23
2023-01-17T04:59:52.592Z,3.25
2023-01-17T05:01:57.945Z,3.26
2023-01-17T05:04:05.910Z,3.22
2023-01-17T05:06:11.087Z,3.23
2023-01-17T05:08:16.394Z,3.26
2023-01-17T05:10:21.302Z,3.3
2023-01-17T05:12:26.665Z,3.29
2023-01-17T05:14:32.014Z,3.25
2023-01-17T05:16:39.072Z,3.28
2023-01-17T05:18:44.167Z,3.25
2023-01-17T05:20:49.177Z,3.22
2023-01-17T05:22:54.491Z,3.18
2023-01-17T05:24:59.865Z,3.13
2023-01-17T05:27:05.918Z,3.11
2023-01-17T05:29:11.425Z,3.07
2023-01-17T05:31:17.153Z,3
2023-01-17T05:33:22.583Z,2.94
2023-01-17T05:35:27.705Z,2.87
2023-01-17T05:37:32.882Z,2.8
2023-01-17T05:39:38.093Z,2.7
2023-01-17T05:41:43.635Z,2.65
2023-01-17T05:43:48.895Z,2.61
2023-01-17T05:45:54.891Z,2.54
2023-01-17T05:48:00.421Z,2.49
2023-01-17T05:50:05.713Z,2.36
2023-01-17T05:52:11.079Z,2.38
2023-01-17T05:54:17.545Z,2.38
2023-01-17T05:56:22.986Z,2.38
2023-01-17T05:58:28.343Z,2.39
2023-01-17T06:00:33.692Z,2.37
2023-01-17T06:02:41.336Z,2.43
2023-01-17T06:04:47.181Z,2.37
2023-01-17T06:06:52.850Z,2.34
2023-01-17T06:08:58.134Z,2.33
2023-01-17T06:11:03.992Z,2.34
2023-01-17T06:13:11.051Z,2.26
2023-01-17T06:15:16.509Z,2.15
2023-01-17T06:17:22.559Z,2.14
2023-01-17T06:19:27.953Z,2.04
2023-01-17T06:21:33.201Z,1.9
2023-01-17T06:23:38.337Z,1.84
2023-01-17T06:25:44.820Z,1.81
2023-01-17T06:27:50.236Z,1.75
2023-01-17T06:29:55.855Z,1.68
2023-01-17T06:32:02.516Z,1.6
2023-01-17T06:34:08.755Z,1.54
2023-01-17T06:36:14.335Z,1.49
2023-01-17T06:38:22.174Z,1.49
2023-01-17T06:40:27.394Z,1.56
2023-01-17T06:42:33.751Z,1.54
2023-01-17T06:44:39.074Z,1.46
2023-01-17T06:46:45.242Z,1.4
2023-01-17T06:48:50.761Z,1.33
2023-01-17T06:50:56.524Z,1.36
2023-01-17T06:53:01.630Z,1.53
2023-01-17T06:55:10.688Z,1.72
2023-01-17T06:57:16.086Z,1.71
2023-01-17T06:59:21.563Z,1.72
2023-01-17T07:01:30.111Z,1.63
2023-01-17T07:03:39.834Z,1.61
2023-01-17T07:05:45.547Z,1.78
2023-01-17T07:07:54.279Z,1.74
2023-01-17T07:10:03.795Z,1.82
2023-01-17T07:12:09.970Z,1.89
2023-01-17T07:14:15.970Z,1.86
2023-01-17T07:16:21.887Z,1.85
2023-01-17T07:18:27.852Z,1.84
2023-01-17T07:20:33.312Z,1.95
2023-01-17T07:22:39.035Z,1.9
2023-01-17T07:24:44.620Z,1.81
2023-01-17T07:26:51.561Z,1.75
2023-01-17T07:28:57.098Z,1.69
2023-01-17T07:31:03.075Z,1.67
2023-01-17T07:33:08.789Z,1.63
2023-01-17T07:35:14.467Z,1.66
2023-01-17T07:37:19.581Z,1.67
2023-01-17T07:39:24.821Z,1.79
2023-01-17T07:41:30.255Z,1.88
2023-01-17T07:43:35.382Z,1.91
2023-01-17T07:45:41.301Z,1.98
2023-01-17T07:47:47.738Z,2.08
2023-01-17T07:49:53.384Z,2.18
2023-01-17T07:51:58.646Z,2.4
2023-01-17T07:54:03.768Z,2.51
2023-01-17T07:56:09.229Z,2.59
2023-01-17T07:58:14.496Z,2.66
2023-01-17T08:00:20.817Z,2.8
2023-01-17T08:02:26.972Z,2.93
2023-01-17T08:04:33.169Z,3.05
2023-01-17T08:06:38.353Z,3.27
2023-01-17T08:08:44.965Z,3.36
2023-01-17T08:10:50.479Z,3.42
2023-01-17T08:12:56.034Z,3.53
2023-01-17T08:15:01.422Z,3.6
2023-01-17T08:17:06.560Z,3.67
2023-01-17T08:19:12.016Z,3.72
2023-01-17T08:21:17.309Z,3.74
2023-01-17T08:23:24.817Z,3.78
2023-01-17T08:25:33.504Z,3.75
2023-01-17T08:27:42.069Z,3.72
2023-01-17T08:29:47.978Z,3.71
2023-01-17T08:31:55.764Z,3.74
2023-01-17T08:34:01.039Z,3.74
2023-01-17T08:36:06.493Z,3.78
2023-01-17T08:38:12.148Z,3.73
2023-01-17T08:40:17.856Z,3.73
2023-01-17T08:42:23.036Z,3.87
2023-01-17T08:44:28.534Z,3.88
2023-01-17T08:46:33.769Z,3.88
2023-01-17T08:48:39.647Z,4.02
2023-01-17T08:50:45.806Z,4.04
2023-01-17T08:52:51.956Z,4.11
2023-01-17T08:54:57.726Z,4.11
2023-01-17T08:57:02.883Z,4.11
2023-01-17T08:59:08.687Z,4.13
2023-01-17T09:01:14.346Z,4.09
2023-01-17T09:03:22.854Z,4.17
2023-01-17T09:05:44.355Z,4.21
2023-01-17T09:07:57.299Z,4.15
2023-01-17T09:10:03.204Z,4.25
2023-01-17T09:12:08.621Z,4.22
2023-01-17T09:14:14.824Z,4.21
2023-01-17T09:16:20.936Z,4.23
2023-01-17T09:18:27.150Z,4.19
2023-01-17T09:20:36.902Z,4.21
2023-01-17T09:23:00.288Z,4.26
2023-01-17T09:25:06.276Z,4.22
2023-01-17T09:27:12.059Z,4.27
2023-01-17T09:29:17.456Z,4.26
2023-01-17T09:31:23.184Z,4.37
2023-01-17T09:33:29.757Z,4.37
2023-01-17T09:35:55.158Z,4.3
2023-01-17T09:39:16.294Z,4.31
2023-01-17T09:41:26.522Z,4.19
2023-01-17T09:43:41.003Z,4.26
2023-01-17T09:45:46.786Z,4.28
2023-01-17T09:50:23.684Z,4.4
2023-01-17T09:52:31.523Z,4.42
2023-01-17T09:54:38.408Z,4.45
2023-01-17T09:56:45.196Z,4.41
2023-01-17T09:58:51.267Z,4.47
2023-01-17T10:00:56.747Z,4.39
2023-01-17T10:05:40.736Z,4.46
2023-01-17T10:07:47.151Z,4.48
2023-01-17T10:09:54.219Z,4.51
2023-01-17T10:11:59.890Z,4.48
2023-01-17T10:17:33.955Z,4.5
2023-01-17T10:32:40.647Z,4.82
2023-01-17T10:34:46.867Z,4.93
2023-01-17T10:36:52.849Z,4.91
2023-01-17T10:38:57.945Z,4.9
2023-01-17T10:41:03.038Z,4.96
2023-01-17T10:43:08.258Z,5.03
2023-01-17T10:45:13.491Z,4.99
2023-01-17T10:47:18.655Z,4.89
2023-01-17T10:49:24.044Z,4.9
2023-01-17T10:51:29.453Z,4.97
2023-01-17T10:53:34.734Z,5.01
2023-01-17T10:55:41.068Z,4.87
2023-01-17T10:57:47.611Z,4.92
2023-01-17T10:59:52.722Z,4.9
2023-01-17T11:01:57.946Z,4.89
2023-01-17T11:04:05.032Z,4.79
2023-01-17T11:06:10.526Z,4.77
2023-01-17T11:08:15.850Z,4.91
2023-01-17T11:10:21.362Z,4.97
2023-01-17T11:12:27.406Z,4.89
2023-01-17T11:14:32.987Z,4.88
2023-01-17T11:16:38.856Z,4.87
2023-01-17T11:18:44.896Z,5
2023-01-17T11:20:50.764Z,4.97
2023-01-17T11:22:56.214Z,4.99
2023-01-17T11:25:01.528Z,4.94
2023-01-17T11:27:06.835Z,4.93
2023-01-17T11:29:13.171Z,5.04
2023-01-17T11:31:26.751Z,4.97
2023-01-17T11:33:34.311Z,4.98
2023-01-17T11:35:42.269Z,5.08
2023-01-17T11:40:34.500Z,5.2
2023-01-17T11:42:45.293Z,5.15
2023-01-17T11:45:06.434Z,5.23
2023-01-17T11:47:15.126Z,5.12
2023-01-17T11:49:21.187Z,4.97
2023-01-17T11:51:27.065Z,4.89
2023-01-17T11:53:34.684Z,4.93
2023-01-17T11:56:31.410Z,4.89
2023-01-17T11:58:37.447Z,4.89
2023-01-17T12:05:37.223Z,4.92
2023-01-17T12:07:43.114Z,5.01
2023-01-17T12:09:49.669Z,5.04
2023-01-17T12:15:26.969Z,4.95
